Time;durP1;ratioP1;P1;durP2;ratioP2;P2;SDS_P1;SDS_P2;PMS_P1;PMS_P2;Temp;Humidity;BMP_temperature;BMP_pressure;BME280_temperature;BME280_humidity;BME280_pressure;Samples;Min_cycle;Max_cycle;Signal;HPM_P1;HPM_P2
2021/07/29 00:01:31;;;;;;;6.15;1.80;;;;;;;17.42;64.52;99845.19;5801647;23;20058;-96
2021/07/29 00:11:43;;;;;;;10.80;3.10;;;;;;;17.28;65.88;99840.53;5100686;23;20051;-96
2021/07/29 00:14:08;;;;;;;11.45;2.13;;;;;;;17.12;65.87;99837.81;5007331;23;20070;-96
2021/07/29 00:26:54;;;;;;;9.13;3.25;;;;;;;16.84;66.36;99828.28;5425625;23;20027;-93
2021/07/29 02:48:52;;;;;;;7.63;2.28;;;;;;;17.38;65.92;99851.81;4956061;29;20048;-96
2021/07/29 02:51:18;;;;;;;10.43;2.22;;;;;;;17.38;66.10;99841.22;4962256;29;20039;-96
2021/07/29 02:56:19;;;;;;;9.68;2.47;;;;;;;17.31;66.15;99850.81;4979232;28;20045;-96
2021/07/29 03:09:05;;;;;;;10.70;2.40;;;;;;;17.21;66.29;99879.28;5197781;23;20081;-96
2021/07/29 03:11:31;;;;;;;5.63;2.13;;;;;;;17.07;66.50;99862.16;4998465;28;20053;-96
2021/07/29 03:13:57;;;;;;;8.98;2.38;;;;;;;17.12;66.76;99869.63;4999517;28;20031;-96
2021/07/29 03:16:23;;;;;;;10.73;2.40;;;;;;;17.08;66.55;99870.94;5111925;23;20040;-96
2021/07/29 03:18:48;;;;;;;11.07;3.15;;;;;;;17.07;66.81;99882.56;4960054;29;20020;-96
2021/07/29 03:21:14;;;;;;;10.80;2.95;;;;;;;16.95;67.22;99866.91;4960818;29;20051;-96
2021/07/29 03:23:39;;;;;;;14.95;3.08;;;;;;;16.98;66.88;99882.53;4962313;29;20047;-96
2021/07/29 03:26:06;;;;;;;10.57;2.38;;;;;;;16.98;66.74;99873.72;4960880;28;20031;-96
2021/07/29 03:28:32;;;;;;;10.73;2.92;;;;;;;16.90;66.80;99871.03;4954505;29;20059;-96
2021/07/29 03:30:57;;;;;;;9.15;2.38;;;;;;;16.96;67.03;99886.31;4955654;29;20039;-96
2021/07/29 03:33:23;;;;;;;9.68;2.78;;;;;;;16.88;67.23;99886.28;4958288;29;20036;-96
2021/07/29 03:35:49;;;;;;;10.57;2.40;;;;;;;16.89;67.39;99891.41;4955361;29;20047;-96
2021/07/29 03:38:15;;;;;;;6.30;2.80;;;;;;;16.81;66.53;99867.50;4958316;29;20034;-96
2021/07/29 03:40:41;;;;;;;14.20;3.15;;;;;;;16.71;68.51;99875.56;4952942;29;20027;-96
2021/07/29 03:43:08;;;;;;;7.55;2.60;;;;;;;16.80;67.57;99879.06;4951258;29;20059;-96
2021/07/29 03:45:36;;;;;;;11.63;3.05;;;;;;;16.86;67.65;99891.72;4951635;29;20035;-96
2021/07/29 03:48:02;;;;;;;7.45;2.75;;;;;;;16.87;67.03;99881.97;4950857;29;20024;-96
2021/07/29 03:50:28;;;;;;;10.25;3.38;;;;;;;16.81;67.25;99883.41;4945146;29;20032;-95
2021/07/29 03:52:54;;;;;;;6.75;2.30;;;;;;;16.79;66.85;99885.38;4944097;29;20535;-95
2021/07/29 03:55:19;;;;;;;7.35;2.60;;;;;;;16.78;66.53;99899.59;4942218;29;20055;-96
2021/07/29 03:57:45;;;;;;;9.77;2.25;;;;;;;16.69;67.06;99889.97;4942692;29;20036;-96
2021/07/29 04:00:11;;;;;;;9.02;2.97;;;;;;;16.64;66.67;99893.06;4948646;29;20149;-95
2021/07/29 04:02:37;;;;;;;10.02;2.50;;;;;;;16.62;67.07;99893.22;4948725;29;20032;-96
2021/07/29 04:05:03;;;;;;;11.65;3.08;;;;;;;16.69;67.13;99908.50;4945654;29;20406;-96
2021/07/29 04:07:29;;;;;;;7.68;2.30;;;;;;;16.63;66.98;99897.53;4943674;29;20055;-95
2021/07/29 04:09:54;;;;;;;4.47;2.20;;;;;;;16.56;66.61;99891.19;4941661;29;20059;-95
2021/07/29 04:12:20;;;;;;;9.68;2.70;;;;;;;16.76;66.14;99913.00;4942788;29;20032;-96
2021/07/29 04:14:46;;;;;;;5.43;2.92;;;;;;;16.72;66.35;99913.50;4943144;29;20039;-94
2021/07/29 04:17:11;;;;;;;6.20;2.55;;;;;;;16.72;66.63;99924.09;4941589;29;20490;-96
2021/07/29 04:19:37;;;;;;;7.32;2.83;;;;;;;16.68;66.55;99928.03;4946892;29;20028;-96
2021/07/29 04:22:05;;;;;;;4.68;2.55;;;;;;;16.60;66.09;99926.16;4942648;29;20102;-95
2021/07/29 04:24:30;;;;;;;7.28;2.63;;;;;;;16.57;66.45;99929.97;4941230;29;20082;-95
2021/07/29 04:27:00;;;;;;;8.68;2.72;;;;;;;16.55;66.24;99931.94;4943876;29;20538;-94
2021/07/29 04:29:26;;;;;;;9.95;2.83;;;;;;;16.48;66.19;99925.59;4943017;29;20020;-95
2021/07/29 04:31:52;;;;;;;9.32;2.67;;;;;;;16.44;66.42;99930.34;4940352;29;20023;-96
2021/07/29 04:34:18;;;;;;;7.57;2.60;;;;;;;16.43;66.65;99933.19;4940204;29;20115;-96
2021/07/29 04:36:44;;;;;;;5.65;2.42;;;;;;;16.44;66.46;99930.34;4942008;29;20082;-96
2021/07/29 04:39:10;;;;;;;6.75;2.05;;;;;;;16.41;66.69;99929.81;4937937;29;20034;-96
2021/07/29 04:41:43;;;;;;;6.32;2.15;;;;;;;16.43;66.47;99927.88;4936771;29;20028;-96
2021/07/29 04:44:11;;;;;;;6.05;2.05;;;;;;;16.35;65.86;99930.44;4937655;29;20024;-95
2021/07/29 04:46:37;;;;;;;9.63;2.30;;;;;;;16.24;65.90;99921.75;4938432;29;20111;-95
2021/07/29 04:49:04;;;;;;;8.20;2.58;;;;;;;16.17;66.14;99922.50;4939967;29;20027;-94
2021/07/29 04:51:29;;;;;;;4.78;2.00;;;;;;;16.21;66.30;99923.88;4938222;29;20038;-95
2021/07/29 04:53:55;;;;;;;6.47;2.17;;;;;;;16.18;66.74;99930.31;4940788;29;20027;-96
2021/07/29 04:56:20;;;;;;;6.95;2.30;;;;;;;16.17;66.75;99926.00;4940235;29;20490;-95
2021/07/29 04:58:47;;;;;;;5.63;2.10;;;;;;;16.31;66.54;99937.03;4942697;29;20024;-96
2021/07/29 05:01:13;;;;;;;6.43;2.38;;;;;;;16.30;66.44;99928.25;4945118;29;20056;-95
2021/07/29 05:03:38;;;;;;;8.90;2.92;;;;;;;16.38;66.59;99940.75;4963755;23;20047;-96
2021/07/29 05:06:04;;;;;;;5.70;2.17;;;;;;;16.32;66.75;99928.94;4990690;28;20043;-96
2021/07/29 05:08:30;;;;;;;6.47;2.30;;;;;;;16.25;66.94;99928.72;4989708;28;20023;-96
2021/07/29 05:10:55;;;;;;;8.05;2.38;;;;;;;16.28;67.36;99934.69;4989981;28;20025;-95
2021/07/29 05:13:21;;;;;;;9.50;3.30;;;;;;;16.32;67.03;99931.59;4985410;28;20034;-96
2021/07/29 05:15:46;;;;;;;10.13;2.97;;;;;;;16.37;67.46;99934.63;4987974;28;20018;-96
2021/07/29 05:18:11;;;;;;;6.82;2.63;;;;;;;16.48;66.95;99940.66;4983095;28;20082;-96
2021/07/29 05:20:37;;;;;;;10.07;2.75;;;;;;;16.50;66.99;99936.84;4984942;28;20026;-96
2021/07/29 05:23:02;;;;;;;6.93;2.63;;;;;;;16.70;66.55;99945.44;5181785;23;20102;-95
2021/07/29 05:25:29;;;;;;;7.38;2.60;;;;;;;16.73;65.91;99936.38;4949227;29;20487;-95
2021/07/29 05:27:54;;;;;;;5.68;2.80;;;;;;;16.70;66.21;99932.19;4947939;29;20034;-93
2021/07/29 05:30:20;;;;;;;8.40;3.03;;;;;;;16.70;66.60;99929.53;4946665;29;20052;-96
2021/07/29 05:32:46;;;;;;;10.90;2.90;;;;;;;16.58;66.79;99936.91;4944693;29;20034;-95
2021/07/29 05:35:11;;;;;;;10.75;3.42;;;;;;;16.73;66.62;99939.84;4946948;29;20039;-95
2021/07/29 05:37:38;;;;;;;10.38;2.78;;;;;;;16.55;67.24;99942.53;4945955;29;20099;-96
2021/07/29 05:40:06;;;;;;;9.82;3.55;;;;;;;16.91;66.65;99950.44;4951428;29;20032;-95
2021/07/29 05:42:32;;;;;;;14.05;3.05;;;;;;;17.02;66.51;99963.44;4943267;29;20067;-93
2021/07/29 05:47:35;;;;;;;16.13;3.58;;;;;;;16.73;67.52;99954.94;5103384;23;20063;-96
2021/07/29 05:50:00;;;;;;;11.15;3.80;;;;;;;16.94;67.38;99974.00;4960782;29;20023;-96
2021/07/29 05:52:27;;;;;;;11.98;3.72;;;;;;;17.10;67.46;99961.81;4966386;28;20099;-95
2021/07/29 05:54:52;;;;;;;14.50;3.45;;;;;;;16.91;67.69;99962.88;4963505;28;20503;-96
2021/07/29 05:57:18;;;;;;;5.80;2.70;;;;;;;17.49;66.64;99974.59;4965306;28;20027;-96
2021/07/29 05:59:43;;;;;;;12.50;3.38;;;;;;;17.48;65.94;99959.69;4971051;28;20035;-96
2021/07/29 06:02:09;;;;;;;14.10;3.53;;;;;;;17.54;66.54;99975.78;5126959;23;20047;-95
2021/07/29 06:04:35;;;;;;;7.95;3.25;;;;;;;17.76;66.00;99979.69;4968898;28;20054;-96
2021/07/29 06:07:00;;;;;;;7.13;2.72;;;;;;;18.08;65.75;99993.25;5118625;23;20089;-96
2021/07/29 06:09:25;;;;;;;10.65;3.47;;;;;;;18.27;65.88;99971.69;4960514;28;20093;-96
2021/07/29 06:11:51;;;;;;;14.18;3.72;;;;;;;18.41;64.85;99983.50;4960487;29;20039;-95
2021/07/29 06:14:16;;;;;;;8.73;3.08;;;;;;;18.61;64.29;99984.81;4960717;28;20035;-96
2021/07/29 06:16:41;;;;;;;10.40;3.40;;;;;;;18.67;64.20;99987.81;4959362;28;20023;-96
2021/07/29 06:19:16;;;;;;;8.63;2.42;;;;;;;19.04;63.82;99989.97;4960842;28;20481;-96
2021/07/29 06:21:41;;;;;;;7.65;2.67;;;;;;;19.29;63.81;99990.69;4961727;28;20136;-95
2021/07/29 06:24:06;;;;;;;13.05;3.00;;;;;;;19.32;62.79;99985.06;4959062;28;20043;-95
2021/07/29 06:26:32;;;;;;;7.15;2.33;;;;;;;19.51;62.67;99986.50;5012024;23;20051;-96
2021/07/29 06:28:58;;;;;;;9.27;2.33;;;;;;;19.57;61.66;99993.78;4960835;28;20027;-95
2021/07/29 06:31:23;;;;;;;12.30;2.85;;;;;;;19.73;61.84;99990.25;4962504;28;20078;-95
2021/07/29 06:33:49;;;;;;;7.40;2.45;;;;;;;19.78;61.64;100003.03;4963075;28;20046;-96
2021/07/29 06:36:14;;;;;;;8.75;2.47;;;;;;;19.81;61.03;99990.22;4962048;28;20042;-96
2021/07/29 06:38:40;;;;;;;6.70;2.53;;;;;;;19.98;61.60;99995.44;4960832;28;20054;-96
2021/07/29 06:41:06;;;;;;;9.25;2.63;;;;;;;20.32;59.15;99991.53;4959225;28;20086;-96
2021/07/29 06:43:32;;;;;;;7.75;1.95;;;;;;;21.76;55.72;100008.34;4960021;28;20077;-96
2021/07/29 06:46:05;;;;;;;5.68;2.42;;;;;;;22.34;53.57;100016.44;4959716;28;20429;-96
2021/07/29 06:48:31;;;;;;;3.55;2.15;;;;;;;23.05;53.24;100013.78;4959801;28;20019;-96
2021/07/29 06:51:01;;;;;;;11.50;1.70;;;;;;;24.06;50.46;100010.56;4961109;28;20032;-96
2021/07/29 06:53:26;;;;;;;3.22;1.33;;;;;;;25.14;47.95;99997.03;4964968;28;20102;-96
2021/07/29 06:55:51;;;;;;;7.18;2.17;;;;;;;25.33;45.53;100005.28;4960753;28;20027;-96
2021/07/29 06:58:17;;;;;;;7.35;1.48;;;;;;;26.17;45.70;100014.25;4961193;28;20086;-96
2021/07/29 07:00:42;;;;;;;8.98;2.08;;;;;;;25.51;46.05;100016.19;4959132;28;20451;-96
2021/07/29 07:03:07;;;;;;;8.13;1.85;;;;;;;24.67;47.03;100014.22;4960875;28;20027;-96
2021/07/29 07:05:33;;;;;;;6.15;1.60;;;;;;;24.18;47.45;100018.03;4962159;28;20030;-96
2021/07/29 07:07:58;;;;;;;4.97;1.70;;;;;;;25.52;46.17;100017.00;4960257;28;20034;-96
2021/07/29 07:10:23;;;;;;;8.82;1.83;;;;;;;25.40;44.89;100021.41;4957600;28;20070;-95
2021/07/29 07:12:50;;;;;;;9.25;2.00;;;;;;;25.04;45.12;100017.28;4960040;28;20052;-95
2021/07/29 07:15:15;;;;;;;6.22;1.30;;;;;;;24.74;46.51;100012.34;4959522;28;20079;-94
2021/07/29 07:17:41;;;;;;;5.88;1.83;;;;;;;25.69;45.65;100020.03;4959944;28;20482;-94
2021/07/29 07:20:07;;;;;;;4.60;1.33;;;;;;;25.92;44.98;100028.44;4958790;28;20027;-96
2021/07/29 07:22:32;;;;;;;7.82;1.85;;;;;;;25.02;45.90;100024.72;4958156;28;20114;-95
2021/07/29 07:24:58;;;;;;;6.10;1.50;;;;;;;25.89;44.00;100019.97;4957930;28;20054;-96
2021/07/29 07:27:23;;;;;;;3.60;1.50;;;;;;;26.36;42.88;100019.72;4957344;28;20117;-96
2021/07/29 07:29:48;;;;;;;7.22;2.83;;;;;;;27.23;43.02;100030.63;4957297;28;20058;-96
2021/07/29 07:32:13;;;;;;;11.45;1.70;;;;;;;26.38;43.55;100029.22;4957410;28;20065;-96
2021/07/29 07:34:39;;;;;;;10.43;1.52;;;;;;;26.81;43.47;100017.75;4957492;28;20027;-96
2021/07/29 07:37:04;;;;;;;6.50;1.65;;;;;;;26.55;43.30;100034.91;4957546;28;20078;-96
2021/07/29 07:39:29;;;;;;;8.90;1.63;;;;;;;25.76;44.96;100033.47;4957609;28;20027;-96
2021/07/29 07:41:56;;;;;;;5.97;1.67;;;;;;;25.88;44.66;100023.69;4956942;28;20027;-96
2021/07/29 07:44:21;;;;;;;4.97;1.67;;;;;;;26.17;43.61;100043.03;4957038;28;20030;-96
2021/07/29 07:46:47;;;;;;;6.88;1.27;;;;;;;24.92;45.94;100042.09;4957086;28;20106;-96
2021/07/29 07:49:12;;;;;;;6.50;1.67;;;;;;;25.60;44.12;100038.28;4956829;28;20039;-95
2021/07/29 07:51:38;;;;;;;5.30;1.67;;;;;;;25.37;45.29;100041.44;4956969;28;20027;-96
2021/07/29 07:54:04;;;;;;;6.55;1.42;;;;;;;24.81;46.80;100033.84;4956869;28;20038;-96
2021/07/29 07:56:29;;;;;;;4.65;1.40;;;;;;;25.77;44.97;100044.03;4957108;29;20413;-96
2021/07/29 07:58:54;;;;;;;6.63;1.45;;;;;;;25.69;45.98;100049.63;4956867;28;20481;-96
2021/07/29 08:01:20;;;;;;;6.25;1.85;;;;;;;25.48;46.17;100045.34;4957056;29;20031;-96
2021/07/29 08:03:46;;;;;;;6.53;1.35;;;;;;;26.09;44.59;100047.63;4956921;28;20066;-96
2021/07/29 08:06:12;;;;;;;6.63;2.03;;;;;;;26.81;43.01;100041.16;4957025;28;20202;-96
2021/07/29 08:08:38;;;;;;;7.88;1.17;;;;;;;26.90;40.70;100042.56;4957311;28;20226;-95
2021/07/29 08:11:04;;;;;;;7.93;1.20;;;;;;;26.18;43.42;100045.50;4956786;28;20055;-96
2021/07/29 08:13:29;;;;;;;6.28;1.40;;;;;;;26.00;44.25;100040.84;4955387;28;20061;-96
2021/07/29 08:15:55;;;;;;;6.57;1.50;;;;;;;25.57;44.92;100045.94;4956290;28;20124;-94
2021/07/29 08:18:20;;;;;;;9.07;2.40;;;;;;;25.31;45.18;100056.53;4956678;28;20027;-96
2021/07/29 08:20:45;;;;;;;4.47;1.23;;;;;;;25.03;45.98;100042.50;4956121;28;20031;-96
2021/07/29 08:23:11;;;;;;;7.93;1.67;;;;;;;24.46;46.92;100052.75;4955406;28;20122;-95
2021/07/29 08:25:37;;;;;;;7.65;2.45;;;;;;;24.38;47.51;100051.09;4956296;28;20474;-96
2021/07/29 08:28:03;;;;;;;4.38;1.25;;;;;;;23.95;47.80;100054.91;4956487;28;20089;-94
2021/07/29 08:30:29;;;;;;;3.42;1.70;;;;;;;23.36;48.55;100058.06;4956160;28;20055;-96
2021/07/29 08:32:54;;;;;;;11.68;1.90;;;;;;;23.28;49.69;100050.16;4955996;28;20058;-95
2021/07/29 08:35:19;;;;;;;6.78;1.90;;;;;;;24.43;48.41;100050.50;4956366;29;20038;-96
2021/07/29 08:37:48;;;;;;;8.10;1.50;;;;;;;25.00;46.77;100064.38;4955909;28;20026;-95
2021/07/29 08:40:18;;;;;;;12.95;2.33;;;;;;;25.51;45.13;100055.66;4955942;28;20034;-95
2021/07/29 08:42:45;;;;;;;5.28;1.17;;;;;;;26.39;42.43;100049.72;4956193;28;20039;-95
2021/07/29 08:45:10;;;;;;;4.00;1.20;;;;;;;25.79;43.25;100057.22;4955956;28;20030;-95
2021/07/29 08:47:36;;;;;;;5.32;1.40;;;;;;;25.35;44.40;100056.13;4955884;28;20027;-96
2021/07/29 08:50:06;;;;;;;7.47;1.33;;;;;;;24.52;44.80;100052.78;4956353;28;20117;-95
2021/07/29 08:52:33;;;;;;;7.82;1.30;;;;;;;26.02;43.02;100068.34;4955945;28;20042;-96
2021/07/29 08:54:59;;;;;;;5.05;1.00;;;;;;;26.61;39.76;100052.91;4956616;28;20031;-95
2021/07/29 08:57:31;;;;;;;3.72;1.13;;;;;;;27.89;37.68;100059.59;4955985;28;20149;-96
2021/07/29 08:59:56;;;;;;;5.63;0.90;;;;;;;27.17;37.72;100053.91;4958409;28;20118;-96
2021/07/29 09:02:26;;;;;;;5.95;1.33;;;;;;;28.16;39.03;100059.28;4956707;28;20055;-96
2021/07/29 09:05:18;;;;;;;3.05;0.68;;;;;;;27.46;37.62;100052.38;4960573;28;20062;-96
2021/07/29 09:07:45;;;;;;;6.00;1.30;;;;;;;28.38;36.96;100056.88;4958410;28;20529;-96
2021/07/29 09:10:24;;;;;;;5.00;1.08;;;;;;;28.74;35.21;100057.00;4959367;28;20501;-96
2021/07/29 09:13:28;;;;;;;2.90;0.70;;;;;;;29.91;34.81;100058.81;4958761;28;20023;-96
2021/07/29 09:16:12;;;;;;;3.50;0.80;;;;;;;29.15;34.21;100053.41;4955347;29;20358;-96
2021/07/29 09:18:39;;;;;;;3.00;0.90;;;;;;;29.72;34.22;100050.06;4959436;29;20031;-96
2021/07/29 09:21:12;;;;;;;3.50;0.60;;;;;;;30.94;31.42;100058.78;4959662;28;20093;-96
2021/07/29 09:23:37;;;;;;;10.93;0.77;;;;;;;29.18;33.37;100058.34;4961409;28;20027;-96
2021/07/29 09:26:02;;;;;;;1.67;0.45;;;;;;;28.32;32.97;100057.81;4963712;28;20035;-96
2021/07/29 09:28:36;;;;;;;4.18;0.30;;;;;;;28.73;32.29;100064.25;4964499;28;20585;-96
2021/07/29 09:31:34;;;;;;;3.22;0.38;;;;;;;29.13;32.05;100055.53;4962086;28;20031;-96
2021/07/29 09:34:01;;;;;;;1.40;0.30;;;;;;;30.33;31.36;100047.72;4962479;28;20039;-96
2021/07/29 09:36:34;;;;;;;3.90;0.40;;;;;;;29.73;31.42;100059.81;4968141;28;20027;-96
2021/07/29 09:39:22;;;;;;;3.72;0.40;;;;;;;28.59;31.85;100050.13;4962749;28;20102;-96
2021/07/29 09:41:50;;;;;;;3.08;0.43;;;;;;;30.23;30.85;100056.47;4961656;28;20055;-96
2021/07/29 09:44:43;;;;;;;4.57;0.50;;;;;;;31.16;30.37;100049.91;4959714;28;20042;-96
2021/07/29 09:47:09;;;;;;;4.47;0.50;;;;;;;30.54;30.09;100053.53;4960068;28;20054;-96
2021/07/29 09:49:35;;;;;;;1.33;0.40;;;;;;;30.43;29.66;100053.34;4960383;28;20124;-96
2021/07/29 09:52:02;;;;;;;2.67;0.55;;;;;;;30.74;30.03;100047.63;4962002;28;20031;-96
2021/07/29 09:54:29;;;;;;;3.47;0.52;;;;;;;30.15;29.98;100045.19;4965141;28;20027;-96
2021/07/29 09:56:54;;;;;;;4.38;0.70;;;;;;;31.79;29.24;100042.34;4964621;28;20027;-96
2021/07/29 09:59:19;;;;;;;3.28;0.65;;;;;;;30.62;31.17;100050.41;4962719;28;20046;-96
2021/07/29 10:01:45;;;;;;;5.43;0.52;;;;;;;28.93;31.97;100061.25;4963804;28;20023;-96
2021/07/29 10:04:12;;;;;;;4.72;0.88;;;;;;;28.41;31.80;100056.41;4965733;28;20035;-96
2021/07/29 10:06:40;;;;;;;2.15;0.60;;;;;;;30.21;30.52;100047.78;4967194;28;20024;-96
2021/07/29 10:09:12;;;;;;;3.35;0.43;;;;;;;30.76;28.97;100057.13;4963036;28;20027;-96
2021/07/29 10:11:42;;;;;;;2.28;0.30;;;;;;;32.84;28.89;100046.66;4960161;28;20148;-96
2021/07/29 10:14:10;;;;;;;5.10;0.77;;;;;;;32.95;27.47;100059.25;4961054;28;20031;-96
2021/07/29 10:16:47;;;;;;;3.13;0.55;;;;;;;32.71;25.97;100043.31;4963766;28;20027;-95
2021/07/29 10:19:12;;;;;;;3.92;0.85;;;;;;;33.79;26.82;100043.97;4957473;28;20058;-96
2021/07/29 10:21:40;;;;;;;4.63;0.60;;;;;;;35.72;24.67;100049.69;4962268;28;20043;-96
2021/07/29 10:24:08;;;;;;;2.38;0.63;;;;;;;34.13;25.64;100054.41;4962362;28;20028;-96
2021/07/29 10:26:55;;;;;;;2.35;0.57;;;;;;;34.01;26.00;100048.38;4963199;28;20036;-96
2021/07/29 10:29:24;;;;;;;7.38;0.88;;;;;;;33.04;26.69;100051.41;4958609;29;20027;-96
2021/07/29 10:31:54;;;;;;;1.83;0.38;;;;;;;33.15;27.21;100053.16;4958253;28;20023;-96
2021/07/29 10:34:33;;;;;;;3.80;0.50;;;;;;;32.04;27.01;100044.56;4956484;28;20023;-96
2021/07/29 10:37:02;;;;;;;2.13;0.32;;;;;;;33.03;27.91;100050.59;4955496;28;20098;-96
2021/07/29 10:39:28;;;;;;;3.05;1.02;;;;;;;32.01;27.91;100045.91;4955241;28;20046;-96
2021/07/29 10:41:59;;;;;;;1.48;0.52;;;;;;;32.61;26.44;100045.94;4954735;28;20027;-96
2021/07/29 10:44:36;;;;;;;1.25;0.50;;;;;;;33.53;26.80;100048.44;4954670;28;20031;-96
2021/07/29 10:47:06;;;;;;;5.90;0.80;;;;;;;33.34;28.63;100040.75;4956621;28;20035;-96
2021/07/29 10:49:44;;;;;;;2.60;0.55;;;;;;;34.47;25.41;100041.13;4957958;28;20023;-96
2021/07/29 10:52:13;;;;;;;4.18;0.60;;;;;;;33.02;27.86;100046.25;4957744;29;20460;-96
2021/07/29 10:54:41;;;;;;;5.50;0.80;;;;;;;33.97;27.36;100038.03;4957471;28;20505;-96
2021/07/29 10:57:08;;;;;;;2.78;0.50;;;;;;;35.23;26.72;100046.81;4957364;28;20027;-96
2021/07/29 10:59:34;;;;;;;4.47;0.80;;;;;;;33.66;26.04;100053.44;4957716;28;20031;-96
2021/07/29 11:02:06;;;;;;;3.97;0.90;;;;;;;34.01;27.14;100041.03;4957199;28;20024;-95
2021/07/29 11:04:53;;;;;;;4.85;0.60;;;;;;;34.15;25.52;100039.44;4957038;28;20070;-95
2021/07/29 11:07:19;;;;;;;4.50;0.60;;;;;;;34.42;25.26;100049.31;4956044;29;20027;-96
2021/07/29 11:09:46;;;;;;;3.20;0.70;;;;;;;33.36;25.52;100048.66;4957299;28;20039;-96
2021/07/29 11:12:16;;;;;;;2.05;0.57;;;;;;;33.16;25.30;100054.81;4957127;28;20482;-96
2021/07/29 11:14:42;;;;;;;2.38;0.73;;;;;;;32.04;26.21;100049.19;4957176;28;20038;-96
2021/07/29 11:17:08;;;;;;;3.83;0.82;;;;;;;31.68;28.01;100054.16;4957369;28;20032;-96
2021/07/29 11:19:48;;;;;;;4.93;0.80;;;;;;;31.98;28.29;100057.22;4957221;28;20035;-95
2021/07/29 11:22:15;;;;;;;7.63;0.88;;;;;;;31.13;27.91;100051.22;4955821;29;20378;-95
2021/07/29 11:24:40;;;;;;;6.03;0.85;;;;;;;30.88;28.75;100054.34;4955944;28;20035;-96
2021/07/29 11:27:11;;;;;;;3.65;0.88;;;;;;;32.18;27.58;100051.22;4957024;28;20519;-96
2021/07/29 11:29:52;;;;;;;3.90;0.85;;;;;;;32.92;27.42;100062.47;4956675;28;20026;-96
2021/07/29 11:32:18;;;;;;;2.17;0.60;;;;;;;32.56;27.09;100043.16;4957090;28;20027;-96
2021/07/29 11:34:43;;;;;;;1.95;0.82;;;;;;;33.12;26.80;100049.06;4956817;28;20441;-96
2021/07/29 11:37:09;;;;;;;2.38;0.95;;;;;;;31.63;27.55;100044.88;4956969;28;20447;-95
2021/07/29 11:39:37;;;;;;;2.20;1.00;;;;;;;31.45;28.28;100050.63;4956872;28;20031;-94
2021/07/29 11:42:03;;;;;;;2.83;0.65;;;;;;;31.27;28.49;100050.88;4956747;28;20020;-96
2021/07/29 11:44:43;;;;;;;3.97;1.20;;;;;;;31.68;29.66;100054.16;4956728;28;20034;-95
2021/07/29 11:47:08;;;;;;;5.88;1.40;;;;;;;30.87;29.26;100057.31;4956740;28;20023;-96
2021/07/29 11:49:48;;;;;;;5.15;0.90;;;;;;;31.94;28.03;100045.25;4956466;28;20073;-95
2021/07/29 11:52:14;;;;;;;2.08;0.80;;;;;;;30.16;29.39;100044.16;4956724;28;20055;-95
2021/07/29 11:54:39;;;;;;;5.18;1.20;;;;;;;30.51;29.38;100038.59;4956470;28;20027;-95
2021/07/29 11:57:06;;;;;;;6.45;1.10;;;;;;;30.79;29.89;100037.69;4955263;28;20031;-95
2021/07/29 11:59:39;;;;;;;3.47;1.10;;;;;;;30.80;30.28;100042.00;4956707;28;20019;-96
2021/07/29 12:02:05;;;;;;;3.95;0.98;;;;;;;30.94;29.80;100036.28;4956488;28;20031;-95
2021/07/29 12:04:34;;;;;;;4.03;0.93;;;;;;;31.07;30.18;100035.97;4956375;28;20478;-95
2021/07/29 12:07:01;;;;;;;4.43;1.05;;;;;;;31.29;28.84;100030.56;4956127;28;20027;-96
2021/07/29 12:09:27;;;;;;;4.15;0.93;;;;;;;31.67;28.90;100047.91;4956154;28;20474;-95
2021/07/29 12:11:54;;;;;;;5.07;1.00;;;;;;;32.49;26.82;100046.09;4956153;28;20031;-96
2021/07/29 12:14:19;;;;;;;4.95;1.05;;;;;;;31.15;29.21;100032.00;4955580;28;20073;-95
2021/07/29 12:16:46;;;;;;;4.65;1.00;;;;;;;30.42;29.64;100037.34;4955780;28;20438;-96
2021/07/29 12:19:11;;;;;;;4.47;1.50;;;;;;;30.30;30.14;100050.09;4956030;28;20027;-96
2021/07/29 12:21:37;;;;;;;2.28;0.93;;;;;;;30.73;29.21;100035.97;4954777;29;20023;-96
2021/07/29 12:24:02;;;;;;;3.50;1.23;;;;;;;30.91;29.46;100031.38;4955722;28;20027;-95
2021/07/29 12:26:28;;;;;;;4.45;1.25;;;;;;;30.12;30.76;100034.88;4955799;28;20035;-95
2021/07/29 12:28:53;;;;;;;5.00;1.33;;;;;;;30.19;30.90;100035.53;4956036;28;20031;-95
2021/07/29 12:31:26;;;;;;;8.38;1.50;;;;;;;31.38;30.97;100039.06;4954391;28;20031;-96
2021/07/29 12:33:52;;;;;;;4.78;1.05;;;;;;;31.69;29.58;100036.78;4955422;28;20102;-96
2021/07/29 12:36:18;;;;;;;4.18;0.90;;;;;;;32.73;29.26;100035.72;4955194;28;20501;-96
2021/07/29 12:38:43;;;;;;;4.90;1.33;;;;;;;30.77;29.90;100025.44;4955403;28;20463;-96
2021/07/29 12:41:09;;;;;;;7.05;1.45;;;;;;;30.66;30.36;100029.88;4955429;28;20023;-96
2021/07/29 12:43:35;;;;;;;5.35;1.05;;;;;;;30.36;30.84;100031.00;4955582;28;20509;-96
2021/07/29 12:46:04;;;;;;;4.57;0.90;;;;;;;29.78;31.61;100027.47;4955466;28;20075;-96
2021/07/29 12:48:30;;;;;;;4.55;1.17;;;;;;;29.93;31.06;100031.53;4955426;28;20023;-95
2021/07/29 12:50:57;;;;;;;5.90;1.30;;;;;;;30.35;31.50;100042.06;4955159;28;20058;-95
2021/07/29 12:53:24;;;;;;;5.75;1.13;;;;;;;30.31;31.56;100036.31;4955266;28;20035;-95
2021/07/29 12:55:51;;;;;;;4.72;0.95;;;;;;;30.17;30.97;100033.06;4955499;28;20035;-94
2021/07/29 12:58:18;;;;;;;3.25;1.60;;;;;;;30.94;30.33;100031.69;4953819;29;20026;-95
2021/07/29 13:00:46;;;;;;;11.50;1.10;;;;;;;30.96;31.50;100028.72;4955147;28;20027;-95
2021/07/29 13:03:35;;;;;;;4.90;1.35;;;;;;;31.41;30.08;100022.31;4954707;28;20038;-95
2021/07/29 13:06:01;;;;;;;4.10;1.40;;;;;;;30.92;30.35;100027.59;4954783;28;20031;-96
2021/07/29 13:08:28;;;;;;;5.00;1.10;;;;;;;31.28;30.38;100028.09;4955117;28;20054;-96
2021/07/29 13:10:57;;;;;;;8.35;1.40;;;;;;;30.81;31.45;100032.84;4957071;28;20151;-95
2021/07/29 13:13:25;;;;;;;1.83;0.95;;;;;;;30.90;29.52;100025.13;4954952;28;20085;-95
2021/07/29 13:15:50;;;;;;;5.35;1.13;;;;;;;29.84;30.54;100020.28;4955006;28;20033;-95
2021/07/29 13:18:16;;;;;;;3.90;1.33;;;;;;;29.15;32.52;100031.78;4954774;28;20023;-95
2021/07/29 13:20:41;;;;;;;5.70;1.83;;;;;;;29.73;33.30;100026.53;4954817;28;20504;-95
2021/07/29 13:23:07;;;;;;;3.88;1.13;;;;;;;29.90;31.99;100021.16;4954524;28;20028;-95
2021/07/29 13:25:32;;;;;;;3.72;1.30;;;;;;;30.11;32.83;100022.38;4954764;28;20035;-95
2021/07/29 13:27:58;;;;;;;6.03;1.70;;;;;;;29.63;32.75;100016.31;4954928;28;20031;-95
2021/07/29 13:30:23;;;;;;;3.90;1.00;;;;;;;29.69;31.86;100019.94;4954658;28;20106;-95
2021/07/29 13:32:48;;;;;;;5.60;1.67;;;;;;;29.25;34.58;100015.78;4955761;28;20082;-96
2021/07/29 13:35:14;;;;;;;10.05;1.40;;;;;;;28.59;34.91;100025.00;4955976;28;20078;-95
2021/07/29 13:37:39;;;;;;;3.28;1.20;;;;;;;29.04;33.29;100019.88;4955030;28;20035;-95
2021/07/29 13:40:05;;;;;;;5.55;1.42;;;;;;;27.83;35.07;100030.81;4954798;28;20027;-95
2021/07/29 13:42:32;;;;;;;4.13;1.20;;;;;;;27.65;35.31;100020.88;4954703;29;20590;-95
2021/07/29 13:45:16;;;;;;;4.65;1.55;;;;;;;28.45;34.49;100013.56;4954726;28;20037;-96
2021/07/29 13:47:45;;;;;;;3.42;1.33;;;;;;;27.48;35.08;100019.81;4954882;28;20098;-96
2021/07/29 13:50:10;;;;;;;5.68;1.48;;;;;;;27.53;35.28;100009.19;4955644;28;20042;-96
2021/07/29 13:52:36;;;;;;;3.45;1.30;;;;;;;28.36;35.14;100018.50;4955561;28;20366;-95
2021/07/29 13:55:02;;;;;;;10.30;1.67;;;;;;;28.13;34.60;100004.91;4955086;28;20078;-96
2021/07/29 13:57:27;;;;;;;5.60;1.67;;;;;;;28.76;36.45;100001.66;4955282;28;20024;-95
2021/07/29 13:59:54;;;;;;;6.20;2.03;;;;;;;29.03;36.30;100012.03;4954930;28;20061;-96
2021/07/29 14:02:21;;;;;;;7.35;1.35;;;;;;;28.21;34.73;100007.28;4955745;28;20106;-96
2021/07/29 14:04:47;;;;;;;6.43;1.50;;;;;;;29.03;34.17;99993.09;4955199;28;20023;-96
2021/07/29 14:07:12;;;;;;;4.88;1.83;;;;;;;29.00;34.01;99999.78;4955151;28;20023;-95
2021/07/29 14:09:38;;;;;;;6.60;1.60;;;;;;;28.79;33.77;99987.69;4955091;28;20106;-95
2021/07/29 14:12:03;;;;;;;7.25;1.58;;;;;;;28.98;33.39;99996.50;4955231;28;20031;-94
2021/07/29 14:14:29;;;;;;;8.35;1.77;;;;;;;28.40;34.54;99995.38;4955129;28;20123;-96
2021/07/29 14:16:56;;;;;;;4.68;1.33;;;;;;;29.31;33.13;99986.16;4953785;28;20028;-95
2021/07/29 14:24:37;;;;;;;2.85;1.23;;;;;;;28.51;35.33;99982.16;4959062;28;20027;-96
2021/07/29 14:27:04;;;;;;;5.78;1.50;;;;;;;28.59;35.07;99984.50;4958737;28;20085;-95